Time;durP1;ratioP1;P1;durP2;ratioP2;P2;SDS_P1;SDS_P2;PMS_P1;PMS_P2;Temp;Humidity;BMP_temperature;BMP_pressure;BME280_temperature;BME280_humidity;BME280_pressure;Samples;Min_cycle;Max_cycle;Signal;HPM_P1;HPM_P2
2023/04/09 00:02:17;;;;;;;42.67;22.27;;;9.10;99.90;;;;;;5036463;28;20502;-69
2023/04/09 00:04:42;;;;;;;47.17;21.97;;;9.10;99.90;;;;;;5046644;28;20037;-69
2023/04/09 00:07:08;;;;;;;48.93;23.50;;;9.10;99.90;;;;;;5028748;28;20514;-69
2023/04/09 00:09:34;;;;;;;46.33;23.07;;;9.10;99.90;;;;;;5052328;28;20041;-69
2023/04/09 00:12:00;;;;;;;43.08;21.40;;;9.10;99.90;;;;;;5041585;28;20055;-69
2023/04/09 00:14:26;;;;;;;43.03;21.88;;;9.10;99.90;;;;;;5011840;28;20475;-69
2023/04/09 00:16:52;;;;;;;46.75;21.63;;;9.10;99.90;;;;;;5028353;28;20055;-69
2023/04/09 00:19:18;;;;;;;47.37;22.47;;;9.10;99.90;;;;;;5002919;28;20052;-69
2023/04/09 00:21:43;;;;;;;41.63;19.53;;;9.20;99.90;;;;;;5046012;28;20041;-69
2023/04/09 00:24:09;;;;;;;39.17;19.50;;;9.20;99.90;;;;;;5046375;28;20090;-69
2023/04/09 00:26:35;;;;;;;40.00;19.80;;;9.20;99.90;;;;;;5028132;28;20132;-69
2023/04/09 00:29:00;;;;;;;40.28;19.70;;;9.10;99.90;;;;;;5027191;28;20263;-69
2023/04/09 00:31:26;;;;;;;42.93;19.33;;;9.20;99.90;;;;;;5022078;28;20048;-69
2023/04/09 00:33:51;;;;;;;34.90;18.33;;;9.20;99.90;;;;;;5046139;28;20048;-69
2023/04/09 00:36:17;;;;;;;39.53;19.47;;;9.20;99.90;;;;;;5028193;28;20390;-69
2023/04/09 00:38:43;;;;;;;31.43;18.60;;;9.20;99.90;;;;;;5033952;28;20045;-69
2023/04/09 00:41:09;;;;;;;34.47;18.80;;;9.20;99.90;;;;;;5005312;28;20044;-69
2023/04/09 00:43:34;;;;;;;32.78;17.58;;;9.20;99.90;;;;;;5027561;28;20308;-69
2023/04/09 00:46:00;;;;;;;37.40;18.83;;;9.20;99.90;;;;;;5011833;28;20041;-69
2023/04/09 00:48:26;;;;;;;37.97;18.88;;;9.20;99.90;;;;;;5011479;28;20125;-69
2023/04/09 00:50:52;;;;;;;39.75;19.58;;;9.20;99.90;;;;;;5011777;28;20106;-69
2023/04/09 00:53:18;;;;;;;39.43;20.00;;;9.20;99.90;;;;;;5027850;28;20045;-69
2023/04/09 00:55:44;;;;;;;38.97;19.45;;;9.20;99.90;;;;;;5027675;28;20495;-69
2023/04/09 00:58:10;;;;;;;38.42;19.95;;;9.10;99.90;;;;;;5045226;28;20254;-69
2023/04/09 01:00:36;;;;;;;37.20;19.13;;;9.10;99.90;;;;;;5007501;28;20083;-69
2023/04/09 01:03:04;;;;;;;40.20;19.15;;;9.10;99.90;;;;;;5022675;28;20052;-69
2023/04/09 01:08:30;;;;;;;40.20;19.40;;;9.10;99.90;;;;;;5034302;28;20053;-73
2023/04/09 01:11:07;;;;;;;39.75;19.23;;;9.10;99.90;;;;;;5023222;28;20041;-72
2023/04/09 01:13:46;;;;;;;46.33;22.30;;;9.10;99.90;;;;;;5006107;28;20481;-72
2023/04/09 01:16:15;;;;;;;44.25;21.15;;;9.10;99.90;;;;;;5018762;28;20144;-72
2023/04/09 01:19:01;;;;;;;52.33;23.02;;;9.10;99.90;;;;;;5032301;28;20084;-72
2023/04/09 01:21:31;;;;;;;43.55;21.02;;;9.10;99.90;;;;;;5006275;28;20138;-72
2023/04/09 01:24:14;;;;;;;47.53;20.70;;;9.10;99.90;;;;;;5026258;28;20064;-72
2023/04/09 01:27:02;;;;;;;46.78;22.10;;;9.00;99.90;;;;;;5039406;28;20052;-72
2023/04/09 01:29:32;;;;;;;44.58;21.33;;;9.00;99.90;;;;;;5017291;28;20114;-72
2023/04/09 01:31:59;;;;;;;52.13;24.38;;;9.00;99.90;;;;;;5012404;28;20501;-73
2023/04/09 01:34:27;;;;;;;55.47;24.25;;;9.00;99.90;;;;;;5001340;28;20195;-72
2023/04/09 01:36:57;;;;;;;50.95;22.90;;;8.90;99.90;;;;;;5027983;28;20151;-72
2023/04/09 01:39:23;;;;;;;53.75;23.27;;;8.90;99.90;;;;;;5022016;28;20056;-72
2023/04/09 01:41:52;;;;;;;56.50;24.08;;;8.90;99.90;;;;;;5029032;28;20041;-72
2023/04/09 01:44:19;;;;;;;56.03;23.30;;;8.90;99.90;;;;;;5014063;28;20137;-73
2023/04/09 01:46:48;;;;;;;52.67;22.85;;;8.80;99.90;;;;;;5006805;28;20518;-72
2023/04/09 01:49:15;;;;;;;60.90;26.95;;;8.80;99.90;;;;;;5021609;28;20149;-72
2023/04/09 01:51:42;;;;;;;56.25;22.38;;;8.80;99.90;;;;;;5015347;28;20072;-72
2023/04/09 01:54:08;;;;;;;53.13;22.92;;;8.80;99.90;;;;;;5017086;28;20394;-73
2023/04/09 01:56:45;;;;;;;51.92;22.92;;;8.80;99.90;;;;;;5022834;28;20037;-72
2023/04/09 01:59:11;;;;;;;56.80;24.85;;;8.70;99.90;;;;;;5020855;28;20088;-72
2023/04/09 02:01:52;;;;;;;57.45;26.25;;;8.70;99.90;;;;;;5037003;28;20267;-72
2023/04/09 02:04:32;;;;;;;51.45;23.73;;;8.70;99.90;;;;;;5018521;28;20400;-73
2023/04/09 02:07:06;;;;;;;51.92;23.60;;;8.70;99.90;;;;;;5023921;28;20041;-72
2023/04/09 02:09:35;;;;;;;54.03;22.27;;;8.70;99.90;;;;;;5017864;28;20415;-73
2023/04/09 02:12:04;;;;;;;55.83;22.48;;;8.70;99.90;;;;;;5017058;28;20067;-72
2023/04/09 02:14:32;;;;;;;52.78;22.70;;;8.70;99.90;;;;;;5014873;28;20406;-73
2023/04/09 02:16:59;;;;;;;58.47;21.95;;;8.60;99.90;;;;;;5017974;28;20059;-72
2023/04/09 02:19:37;;;;;;;58.63;24.85;;;8.60;99.90;;;;;;5013529;28;20138;-72
2023/04/09 02:22:04;;;;;;;57.60;23.05;;;8.60;99.90;;;;;;5005954;28;20454;-72
2023/04/09 02:24:29;;;;;;;57.72;24.45;;;8.60;99.90;;;;;;5013499;28;20069;-72
2023/04/09 02:26:55;;;;;;;59.45;24.80;;;8.60;99.90;;;;;;5012422;28;20091;-73
2023/04/09 02:29:21;;;;;;;55.83;23.07;;;8.60;99.90;;;;;;5016280;28;20045;-73
2023/04/09 02:31:46;;;;;;;51.53;23.30;;;8.60;99.90;;;;;;5041148;28;20045;-72
2023/04/09 02:34:12;;;;;;;52.03;22.63;;;8.60;99.90;;;;;;5014386;28;20041;-73
2023/04/09 02:36:38;;;;;;;50.53;22.43;;;8.50;99.90;;;;;;5002359;28;20240;-72
2023/04/09 02:39:03;;;;;;;52.07;21.63;;;8.50;99.90;;;;;;5013101;28;20096;-72
2023/04/09 02:41:29;;;;;;;51.43;22.00;;;8.50;99.90;;;;;;5011682;28;20606;-73
2023/04/09 02:43:55;;;;;;;44.80;19.85;;;8.50;99.90;;;;;;5016269;28;20079;-73
2023/04/09 02:46:20;;;;;;;47.47;19.10;;;8.40;99.90;;;;;;5011206;28;20272;-73
2023/04/09 02:48:46;;;;;;;44.13;17.97;;;8.40;99.90;;;;;;5017281;28;20124;-72
2023/04/09 02:51:11;;;;;;;37.73;17.30;;;8.40;99.90;;;;;;5017185;28;20490;-73
2023/04/09 02:53:39;;;;;;;48.50;18.27;;;8.40;99.90;;;;;;5014351;28;20055;-73
2023/04/09 02:56:05;;;;;;;43.88;18.35;;;8.40;99.90;;;;;;5034400;28;20043;-73
2023/04/09 02:58:30;;;;;;;41.72;16.95;;;8.40;99.90;;;;;;5018211;28;20565;-73
2023/04/09 03:00:56;;;;;;;39.50;16.13;;;8.40;99.90;;;;;;5017703;28;20041;-72
2023/04/09 03:03:22;;;;;;;39.97;16.57;;;8.40;99.90;;;;;;5014220;28;20083;-73
2023/04/09 03:05:47;;;;;;;46.00;18.17;;;8.40;99.90;;;;;;5012661;28;20064;-73
2023/04/09 03:08:13;;;;;;;35.03;14.70;;;8.30;99.90;;;;;;5017250;28;20841;-73
2023/04/09 03:10:39;;;;;;;37.43;14.57;;;8.30;99.90;;;;;;5010051;28;20103;-72
2023/04/09 03:13:05;;;;;;;35.37;15.77;;;8.30;99.90;;;;;;5026138;28;20596;-72
2023/04/09 03:15:30;;;;;;;37.03;16.23;;;8.30;99.90;;;;;;5035484;28;20453;-73
2023/04/09 03:17:56;;;;;;;38.73;16.93;;;8.30;99.90;;;;;;5038287;28;20048;-72
2023/04/09 03:20:21;;;;;;;40.90;17.10;;;8.30;99.90;;;;;;5002888;28;20466;-73
2023/04/09 03:22:47;;;;;;;36.80;16.13;;;8.30;99.90;;;;;;5020115;28;20490;-72
2023/04/09 03:25:13;;;;;;;39.63;18.23;;;8.30;99.90;;;;;;5023440;28;20032;-73
2023/04/09 03:27:39;;;;;;;36.53;15.90;;;8.30;99.90;;;;;;5020271;28;20052;-73
2023/04/09 03:30:05;;;;;;;41.03;17.57;;;8.30;99.90;;;;;;5026802;28;20099;-73
2023/04/09 03:32:30;;;;;;;42.53;16.88;;;8.30;99.90;;;;;;5021473;28;20048;-73
2023/04/09 03:34:56;;;;;;;39.10;16.90;;;8.30;99.90;;;;;;5020620;28;20124;-73
2023/04/09 03:37:22;;;;;;;39.20;17.13;;;8.30;99.90;;;;;;5019061;28;20076;-73
2023/04/09 03:39:47;;;;;;;43.70;17.37;;;8.20;99.90;;;;;;5024492;28;20041;-72
2023/04/09 03:42:13;;;;;;;44.93;17.17;;;8.30;99.90;;;;;;5037136;28;20033;-72
2023/04/09 03:44:38;;;;;;;35.87;15.77;;;8.20;99.90;;;;;;5031640;28;20050;-72
2023/04/09 03:47:04;;;;;;;39.27;17.00;;;8.20;99.90;;;;;;5023944;28;20041;-73
2023/04/09 03:49:29;;;;;;;35.33;15.73;;;8.20;99.90;;;;;;5025223;28;20041;-73
2023/04/09 03:51:55;;;;;;;35.23;15.57;;;8.20;99.90;;;;;;5029297;28;20037;-73
2023/04/09 03:54:21;;;;;;;34.97;15.60;;;8.20;99.90;;;;;;5027581;28;20041;-73
2023/04/09 03:56:46;;;;;;;36.00;16.23;;;8.20;99.90;;;;;;5019782;28;20044;-73
2023/04/09 03:59:12;;;;;;;29.63;14.37;;;8.20;99.90;;;;;;5040675;28;20051;-73
2023/04/09 04:01:41;;;;;;;27.60;13.00;;;8.20;99.90;;;;;;5021397;28;20067;-73
2023/04/09 04:04:06;;;;;;;33.15;14.77;;;8.20;99.90;;;;;;5022257;28;20052;-73
2023/04/09 04:06:34;;;;;;;31.20;13.90;;;8.10;99.90;;;;;;5037827;28;20040;-73
2023/04/09 04:09:00;;;;;;;32.65;13.75;;;8.20;99.90;;;;;;5018359;28;20047;-72
2023/04/09 04:11:25;;;;;;;32.53;14.53;;;8.20;99.90;;;;;;5020552;28;20053;-73
2023/04/09 04:13:51;;;;;;;24.43;12.57;;;8.20;99.90;;;;;;5025170;28;20037;-73
2023/04/09 04:16:16;;;;;;;25.33;12.50;;;8.20;99.90;;;;;;5025629;28;20478;-73
2023/04/09 04:18:42;;;;;;;28.23;13.67;;;8.20;99.90;;;;;;5023926;28;20057;-73
2023/04/09 04:21:15;;;;;;;31.40;13.37;;;8.20;99.90;;;;;;5040579;28;20040;-72
2023/04/09 04:23:41;;;;;;;32.30;14.25;;;8.20;99.90;;;;;;5022461;28;20124;-72
2023/04/09 04:26:10;;;;;;;27.90;12.83;;;8.20;99.90;;;;;;5022485;28;20566;-72
2023/04/09 04:28:37;;;;;;;31.45;14.35;;;8.30;99.90;;;;;;5009194;28;20359;-73
2023/04/09 04:31:10;;;;;;;28.77;13.68;;;8.20;99.90;;;;;;5009453;28;20036;-73
2023/04/09 04:33:36;;;;;;;35.13;14.70;;;8.20;99.90;;;;;;5038873;28;20513;-72
2023/04/09 04:36:05;;;;;;;30.38;13.60;;;8.20;99.90;;;;;;5018832;28;20041;-72
2023/04/09 04:38:31;;;;;;;33.85;15.45;;;8.20;99.90;;;;;;5015613;28;20132;-73
2023/04/09 04:40:57;;;;;;;31.95;14.90;;;8.20;99.90;;;;;;5020450;28;20570;-72
2023/04/09 04:43:23;;;;;;;33.50;16.33;;;8.20;99.90;;;;;;5023528;28;20140;-73
2023/04/09 04:45:48;;;;;;;34.70;15.07;;;8.20;99.90;;;;;;5023178;28;20045;-72
2023/04/09 04:48:14;;;;;;;30.83;15.43;;;8.20;99.90;;;;;;5038688;28;20037;-73
2023/04/09 04:50:39;;;;;;;28.40;13.70;;;8.20;99.90;;;;;;5005984;28;20055;-73
2023/04/09 04:53:05;;;;;;;37.63;15.70;;;8.20;99.90;;;;;;5014111;28;21067;-72
2023/04/09 04:55:33;;;;;;;36.67;15.63;;;8.20;99.90;;;;;;5006350;28;20124;-74
2023/04/09 04:57:59;;;;;;;34.83;14.75;;;8.20;99.90;;;;;;5022514;28;20478;-73
2023/04/09 05:00:25;;;;;;;40.73;17.17;;;8.20;99.90;;;;;;5024069;28;20055;-72
2023/04/09 05:02:50;;;;;;;32.47;14.47;;;8.20;99.90;;;;;;5019937;28;20543;-72
2023/04/09 05:05:16;;;;;;;34.90;15.23;;;8.10;99.90;;;;;;5034046;28;20094;-73
2023/04/09 05:07:41;;;;;;;33.83;15.90;;;8.10;99.90;;;;;;5002380;28;20490;-72
2023/04/09 05:10:08;;;;;;;33.83;14.93;;;8.10;99.90;;;;;;5042407;28;20314;-73
2023/04/09 05:12:33;;;;;;;32.47;15.32;;;8.10;99.90;;;;;;5020758;28;20367;-72
2023/04/09 05:14:59;;;;;;;33.17;15.43;;;8.10;99.90;;;;;;5021381;28;20049;-71
2023/04/09 05:17:25;;;;;;;35.83;15.43;;;8.10;99.90;;;;;;5027749;28;20040;-72
2023/04/09 05:19:51;;;;;;;38.10;16.03;;;8.10;99.90;;;;;;5017876;28;20056;-72
2023/04/09 05:22:17;;;;;;;35.38;16.63;;;8.10;99.90;;;;;;5004748;28;20410;-71
2023/04/09 05:24:43;;;;;;;40.40;16.90;;;8.10;99.90;;;;;;5024439;28;20069;-72
2023/04/09 05:27:09;;;;;;;32.67;15.93;;;8.10;99.90;;;;;;5024376;28;20060;-72
2023/04/09 05:29:34;;;;;;;33.87;15.37;;;8.10;99.90;;;;;;5011271;28;20068;-72
2023/04/09 05:32:00;;;;;;;33.73;15.53;;;8.10;99.90;;;;;;5019935;28;20048;-72
2023/04/09 05:34:26;;;;;;;38.93;16.77;;;8.10;99.90;;;;;;5020477;28;20118;-72
2023/04/09 05:36:53;;;;;;;33.03;16.13;;;8.10;99.90;;;;;;5008447;28;20056;-72
2023/04/09 05:39:18;;;;;;;;;;;8.20;99.90;;;;;;5010047;28;20088;-72
2023/04/09 05:41:45;;;;;;;34.47;14.25;;;8.10;99.90;;;;;;5026140;28;20013;-72
2023/04/09 05:44:11;;;;;;;35.17;17.05;;;8.10;99.90;;;;;;5019512;28;20053;-72
2023/04/09 05:46:37;;;;;;;35.75;14.88;;;8.10;99.90;;;;;;5037816;28;20037;-72
2023/04/09 05:49:03;;;;;;;31.40;15.30;;;8.10;99.90;;;;;;5019480;28;20434;-74
2023/04/09 05:51:28;;;;;;;36.03;16.30;;;8.10;99.90;;;;;;5023820;28;20099;-74
2023/04/09 05:53:54;;;;;;;36.43;14.63;;;8.20;99.90;;;;;;5034381;28;20696;-74
2023/04/09 05:56:22;;;;;;;37.23;16.20;;;8.10;99.90;;;;;;5004869;28;20386;-74
2023/04/09 05:58:47;;;;;;;39.05;16.05;;;8.20;99.90;;;;;;5042157;28;20037;-74
2023/04/09 06:01:16;;;;;;;40.97;16.03;;;8.20;99.90;;;;;;5011538;28;20041;-74
2023/04/09 06:03:42;;;;;;;33.75;14.20;;;8.20;99.90;;;;;;5009601;28;20092;-74
2023/04/09 06:06:08;;;;;;;32.20;15.00;;;8.20;99.90;;;;;;5005415;28;20211;-74
2023/04/09 06:08:33;;;;;;;28.17;14.23;;;8.20;99.90;;;;;;5019547;28;21236;-74
2023/04/09 06:10:59;;;;;;;29.03;14.80;;;8.20;99.90;;;;;;5012037;28;20371;-73
2023/04/09 06:13:25;;;;;;;31.97;14.30;;;8.20;99.90;;;;;;4999680;28;20574;-74
2023/04/09 06:15:51;;;;;;;32.65;14.55;;;8.20;99.90;;;;;;5010170;28;20049;-74
2023/04/09 06:18:16;;;;;;;28.85;13.98;;;8.20;99.90;;;;;;5037377;28;20069;-74
2023/04/09 06:20:42;;;;;;;25.58;13.75;;;8.30;99.90;;;;;;5021492;28;20045;-74
2023/04/09 06:23:08;;;;;;;31.53;13.50;;;8.20;99.90;;;;;;5019035;28;20116;-74
2023/04/09 06:25:35;;;;;;;39.45;15.57;;;8.20;99.90;;;;;;5032200;28;20711;-74
2023/04/09 06:28:01;;;;;;;30.00;14.27;;;8.30;99.90;;;;;;5008884;28;20052;-74
2023/04/09 06:30:28;;;;;;;30.30;14.23;;;8.20;99.90;;;;;;5023047;28;20045;-73
2023/04/09 06:32:53;;;;;;;30.75;13.38;;;8.20;99.90;;;;;;5024000;28;20044;-73
2023/04/09 06:35:19;;;;;;;30.13;14.80;;;8.30;99.90;;;;;;5040645;28;20395;-74
2023/04/09 06:37:45;;;;;;;30.63;14.47;;;8.20;99.90;;;;;;5008759;28;20068;-74
2023/04/09 06:40:11;;;;;;;31.90;15.75;;;8.20;99.90;;;;;;5024221;28;20083;-74
2023/04/09 06:42:37;;;;;;;31.63;14.63;;;8.30;99.90;;;;;;5041031;28;20044;-74
2023/04/09 06:45:07;;;;;;;32.70;15.80;;;8.20;99.90;;;;;;5039791;28;20505;-74
2023/04/09 06:47:34;;;;;;;31.90;14.55;;;8.20;99.90;;;;;;5036482;28;20048;-74
2023/04/09 06:50:00;;;;;;;30.73;13.80;;;8.20;99.90;;;;;;5026882;28;20067;-74
2023/04/09 06:52:26;;;;;;;32.67;15.00;;;8.20;99.90;;;;;;5001206;28;20038;-73
2023/04/09 06:54:52;;;;;;;34.90;15.00;;;8.30;99.90;;;;;;5000640;28;20045;-73
2023/04/09 06:57:17;;;;;;;33.70;15.18;;;8.20;99.90;;;;;;5021951;28;20513;-73
2023/04/09 06:59:43;;;;;;;35.77;16.17;;;8.20;99.90;;;;;;5019013;28;20037;-74
2023/04/09 07:02:12;;;;;;;34.72;16.05;;;8.30;99.90;;;;;;5018687;28;20041;-74
2023/04/09 07:04:38;;;;;;;32.40;14.10;;;8.20;99.90;;;;;;5003087;28;20048;-74
2023/04/09 07:07:03;;;;;;;36.10;17.07;;;8.20;99.90;;;;;;5013062;23;20042;-68
2023/04/09 07:09:30;;;;;;;33.60;16.20;;;8.30;99.90;;;;;;5010973;28;20486;-68
2023/04/09 07:11:56;;;;;;;32.42;14.82;;;8.30;99.90;;;;;;5011969;28;20037;-68
2023/04/09 07:14:21;;;;;;;33.97;15.83;;;8.30;99.90;;;;;;4998549;28;20084;-69
2023/04/09 07:16:47;;;;;;;35.40;15.67;;;8.30;99.90;;;;;;5020152;28;20083;-68
2023/04/09 07:19:12;;;;;;;33.53;15.30;;;8.30;99.90;;;;;;5018150;28;20193;-68
2023/04/09 07:21:38;;;;;;;30.73;15.80;;;8.30;99.90;;;;;;5010883;28;20041;-66
2023/04/09 07:24:04;;;;;;;33.97;16.70;;;8.30;99.90;;;;;;5034319;28;20482;-67
2023/04/09 07:26:30;;;;;;;36.08;16.05;;;8.30;99.90;;;;;;5033007;28;20120;-67
2023/04/09 07:28:57;;;;;;;31.10;15.45;;;8.30;99.90;;;;;;5018785;28;20044;-67
2023/04/09 07:31:22;;;;;;;35.22;15.45;;;8.40;99.90;;;;;;5014634;28;20053;-67
2023/04/09 07:33:48;;;;;;;35.27;15.87;;;8.30;99.90;;;;;;5006341;28;20413;-67
2023/04/09 07:36:14;;;;;;;29.43;14.27;;;8.40;99.90;;;;;;5029420;28;20053;-67
2023/04/09 07:38:40;;;;;;;30.02;14.50;;;8.40;99.90;;;;;;5006511;28;20424;-68
2023/04/09 07:41:05;;;;;;;37.95;15.77;;;8.40;99.90;;;;;;5029115;28;20072;-67
2023/04/09 07:43:31;;;;;;;35.57;16.07;;;8.40;99.90;;;;;;5010716;28;20519;-67
2023/04/09 07:45:57;;;;;;;33.20;15.88;;;8.50;99.90;;;;;;5002538;28;20041;-67
2023/04/09 07:48:23;;;;;;;34.83;14.90;;;8.40;99.90;;;;;;5035408;28;20045;-67
2023/04/09 07:50:48;;;;;;;36.93;17.47;;;8.50;99.90;;;;;;5001402;28;20172;-67
2023/04/09 07:53:14;;;;;;;32.93;16.53;;;8.50;99.90;;;;;;5010761;28;20112;-67
2023/04/09 07:55:40;;;;;;;32.27;15.20;;;8.50;99.90;;;;;;5014976;28;20048;-67
2023/04/09 07:58:06;;;;;;;31.37;15.23;;;8.60;99.90;;;;;;5008153;28;20081;-67
2023/04/09 08:00:31;;;;;;;27.50;14.65;;;8.60;99.90;;;;;;5013416;28;20045;-67
2023/04/09 08:02:57;;;;;;;34.38;15.55;;;8.60;99.90;;;;;;5025798;28;20048;-67
2023/04/09 08:05:23;;;;;;;31.20;15.15;;;8.70;99.90;;;;;;5032293;28;20037;-67
2023/04/09 08:07:52;;;;;;;34.50;15.35;;;8.80;99.90;;;;;;5030944;28;20396;-67
2023/04/09 08:10:18;;;;;;;32.28;15.88;;;8.80;99.90;;;;;;5020395;28;20171;-68
2023/04/09 08:12:43;;;;;;;31.83;16.10;;;8.80;99.90;;;;;;5027607;28;20506;-67
2023/04/09 08:15:09;;;;;;;30.70;14.93;;;8.80;99.90;;;;;;5013829;28;20073;-69
2023/04/09 08:17:36;;;;;;;34.72;15.52;;;8.80;99.90;;;;;;4989732;28;20083;-67
2023/04/09 08:20:03;;;;;;;31.92;14.55;;;8.80;99.90;;;;;;5013374;28;20060;-67
2023/04/09 08:22:31;;;;;;;29.85;14.82;;;8.80;99.90;;;;;;5014551;28;20049;-67
2023/04/09 08:24:59;;;;;;;35.45;16.23;;;8.80;99.90;;;;;;5017399;28;20037;-67
2023/04/09 08:27:25;;;;;;;27.58;13.68;;;8.80;99.90;;;;;;5026660;28;20037;-67
2023/04/09 08:29:50;;;;;;;32.17;14.33;;;8.90;99.90;;;;;;4998714;28;20042;-67
2023/04/09 08:32:16;;;;;;;31.27;14.23;;;8.90;99.90;;;;;;5010608;28;20160;-68
2023/04/09 08:34:41;;;;;;;30.37;15.07;;;8.90;99.90;;;;;;5027489;28;20275;-67
2023/04/09 08:37:10;;;;;;;32.50;14.00;;;9.00;99.90;;;;;;5003133;28;20030;-67
2023/04/09 08:39:35;;;;;;;32.70;15.27;;;9.00;99.90;;;;;;5018286;28;20043;-67
2023/04/09 08:42:03;;;;;;;30.70;15.17;;;9.10;99.90;;;;;;5013964;28;20405;-67
2023/04/09 08:44:29;;;;;;;31.48;13.40;;;9.10;99.90;;;;;;5020841;28;20064;-67
2023/04/09 08:46:55;;;;;;;29.08;14.32;;;9.10;99.90;;;;;;5013343;28;20081;-67
2023/04/09 08:49:21;;;;;;;28.45;13.65;;;9.10;99.90;;;;;;4992921;28;20037;-67
2023/04/09 08:51:48;;;;;;;28.43;13.70;;;9.20;99.90;;;;;;5025915;28;20282;-67
2023/04/09 08:54:14;;;;;;;;;;;9.20;99.90;;;;;;5017606;28;20053;-67
2023/04/09 08:56:40;;;;;;;31.17;14.53;;;9.20;99.90;;;;;;5003389;28;19921;-68
2023/04/09 08:59:06;;;;;;;33.37;14.27;;;9.20;99.90;;;;;;4997196;28;20383;-67
2023/04/09 09:01:32;;;;;;;34.67;16.03;;;9.30;99.90;;;;;;4998954;28;20561;-67
2023/04/09 09:04:08;;;;;;;32.17;13.82;;;9.30;99.90;;;;;;5010146;28;20355;-67
2023/04/09 09:06:37;;;;;;;31.60;15.45;;;9.30;99.90;;;;;;5010265;28;20053;-68
2023/04/09 09:09:04;;;;;;;31.88;16.13;;;9.30;99.90;;;;;;5014061;28;20037;-68
2023/04/09 09:11:31;;;;;;;35.58;16.15;;;9.30;99.90;;;;;;5013158;28;20041;-67
2023/04/09 09:13:58;;;;;;;;;;;9.30;99.90;;;;;;5013534;28;20506;-67
2023/04/09 09:16:23;;;;;;;31.73;15.40;;;9.30;99.90;;;;;;5013820;28;19986;-68
2023/04/09 09:18:49;;;;;;;31.03;14.80;;;9.30;99.90;;;;;;5011458;28;20041;-68
2023/04/09 09:21:16;;;;;;;31.77;14.30;;;9.30;99.90;;;;;;4996196;28;20513;-68
2023/04/09 09:23:42;;;;;;;31.77;15.10;;;9.40;99.90;;;;;;5024758;28;20116;-67
2023/04/09 09:26:23;;;;;;;33.42;14.93;;;9.40;99.90;;;;;;5025352;28;20063;-68
2023/04/09 09:28:49;;;;;;;30.38;15.20;;;9.50;99.90;;;;;;5010875;28;20045;-68
2023/04/09 09:31:17;;;;;;;31.42;15.95;;;9.60;99.90;;;;;;5009204;28;20046;-68
2023/04/09 09:33:46;;;;;;;31.27;16.10;;;9.60;99.90;;;;;;5007718;28;20110;-67
2023/04/09 09:36:11;;;;;;;33.17;15.20;;;9.60;99.90;;;;;;5011958;28;20037;-68
2023/04/09 09:38:55;;;;;;;34.33;15.30;;;9.60;99.90;;;;;;5026328;28;20385;-67
2023/04/09 09:41:22;;;;;;;35.60;16.70;;;9.70;99.90;;;;;;5028833;28;20289;-67
2023/04/09 09:43:47;;;;;;;34.40;16.20;;;9.80;99.90;;;;;;5015818;28;20048;-69
2023/04/09 09:46:14;;;;;;;32.35;15.60;;;9.80;99.90;;;;;;5007841;28;20486;-68
2023/04/09 09:48:41;;;;;;;30.95;15.98;;;9.80;99.90;;;;;;5006469;28;20467;-67
2023/04/09 09:51:09;;;;;;;34.38;15.98;;;9.80;99.90;;;;;;5008978;28;20068;-68
2023/04/09 09:53:36;;;;;;;33.75;16.55;;;9.90;99.90;;;;;;5010127;28;20407;-67
2023/04/09 09:56:07;;;;;;;32.78;16.52;;;9.90;99.90;;;;;;5010141;28;20442;-67
2023/04/09 09:58:40;;;;;;;33.22;16.63;;;10.00;99.90;;;;;;5009004;28;20053;-67
2023/04/09 10:01:13;;;;;;;35.92;16.60;;;10.10;99.90;;;;;;5020084;28;20570;-67
2023/04/09 10:03:43;;;;;;;34.45;16.90;;;10.20;99.90;;;;;;5016317;28;20057;-67
2023/04/09 10:06:10;;;;;;;31.30;16.40;;;10.20;99.90;;;;;;5029981;28;20209;-68
2023/04/09 10:08:39;;;;;;;31.55;16.42;;;10.30;99.90;;;;;;5017827;28;20038;-68
2023/04/09 10:11:06;;;;;;;34.17;15.40;;;10.30;99.90;;;;;;5015308;28;20503;-68
2023/04/09 10:13:39;;;;;;;32.55;16.45;;;10.40;99.90;;;;;;5014388;28;20281;-68
2023/04/09 10:16:06;;;;;;;38.05;17.85;;;10.40;99.90;;;;;;4996397;28;20053;-67
2023/04/09 10:18:32;;;;;;;33.50;16.80;;;10.40;99.90;;;;;;5026071;28;20033;-68
2023/04/09 10:21:00;;;;;;;36.67;16.50;;;10.50;99.90;;;;;;5007450;28;20557;-68
2023/04/09 10:23:37;;;;;;;35.72;16.40;;;10.60;99.90;;;;;;5016379;28;20052;-67
2023/04/09 10:26:04;;;;;;;31.05;15.32;;;10.70;99.90;;;;;;5011881;28;20137;-67
2023/04/09 10:28:31;;;;;;;33.63;16.52;;;10.70;99.90;;;;;;5014336;28;20038;-68
2023/04/09 10:30:59;;;;;;;30.38;14.77;;;10.80;99.90;;;;;;5009790;28;20533;-68
2023/04/09 10:33:26;;;;;;;35.63;17.52;;;10.90;99.90;;;;;;5009335;28;20391;-67
2023/04/09 10:36:01;;;;;;;30.45;15.55;;;11.00;99.90;;;;;;5011077;28;20045;-68
2023/04/09 10:38:37;;;;;;;32.85;15.50;;;11.10;99.90;;;;;;5029734;28;20037;-68
2023/04/09 10:41:06;;;;;;;33.15;16.40;;;11.20;99.90;;;;;;5012654;28;20524;-68
2023/04/09 10:43:35;;;;;;;33.33;15.25;;;11.30;99.90;;;;;;5016406;28;20049;-67
2023/04/09 10:46:02;;;;;;;31.92;16.38;;;11.40;99.90;;;;;;5010460;28;20045;-67
2023/04/09 10:48:32;;;;;;;29.63;14.95;;;11.50;99.90;;;;;;5019755;28;20041;-67
2023/04/09 10:50:57;;;;;;;29.52;15.70;;;11.70;99.90;;;;;;5014202;28;20582;-67
2023/04/09 10:53:24;;;;;;;28.83;15.00;;;11.80;99.90;;;;;;5026596;28;20127;-67
2023/04/09 10:55:52;;;;;;;32.10;15.23;;;11.90;99.90;;;;;;5019954;28;20061;-68
2023/04/09 10:58:18;;;;;;;27.25;14.60;;;12.10;99.90;;;;;;5009948;28;20103;-68
2023/04/09 11:00:44;;;;;;;;;;;12.20;99.90;;;;;;5028587;28;20049;-68
2023/04/09 11:03:30;;;;;;;29.58;14.55;;;12.40;99.90;;;;;;5010207;28;19943;-68
2023/04/09 11:06:09;;;;;;;28.70;15.57;;;12.60;99.90;;;;;;5003614;28;20396;-67
2023/04/09 11:08:37;;;;;;;31.00;14.63;;;12.60;99.90;;;;;;5009933;28;20045;-67
2023/04/09 11:11:03;;;;;;;29.98;14.02;;;12.80;99.90;;;;;;5037395;28;20045;-67
2023/04/09 11:13:30;;;;;;;28.10;14.13;;;12.80;99.90;;;;;;5021487;28;20091;-67
2023/04/09 11:16:02;;;;;;;30.05;14.48;;;12.90;99.90;;;;;;4993028;28;20450;-67
2023/04/09 11:18:33;;;;;;;29.05;15.30;;;12.90;99.90;;;;;;5020722;28;20072;-67
2023/04/09 11:21:01;;;;;;;29.52;14.50;;;12.90;99.90;;;;;;5028908;28;20347;-67
2023/04/09 11:23:28;;;;;;;30.02;15.30;;;13.00;99.90;;;;;;5031074;28;20041;-67
2023/04/09 11:25:54;;;;;;;28.40;15.25;;;13.10;99.90;;;;;;5024152;28;20466;-67
2023/04/09 11:28:20;;;;;;;28.42;13.70;;;13.20;99.90;;;;;;5008896;28;20132;-68
2023/04/09 11:30:46;;;;;;;26.58;14.50;;;13.20;99.90;;;;;;5013501;28;20052;-68
2023/04/09 11:33:12;;;;;;;26.77;14.13;;;13.20;99.90;;;;;;5021752;28;20053;-68
2023/04/09 11:35:38;;;;;;;28.42;14.82;;;13.30;99.90;;;;;;5020320;28;20037;-68
2023/04/09 11:38:11;;;;;;;23.92;13.73;;;13.40;99.90;;;;;;5019899;28;20144;-67
2023/04/09 11:40:46;;;;;;;25.65;14.25;;;13.60;99.90;;;;;;5008476;28;20444;-68
2023/04/09 11:43:13;;;;;;;27.05;13.38;;;13.70;99.90;;;;;;5007090;28;20120;-67
2023/04/09 11:45:39;;;;;;;23.75;13.73;;;13.80;99.90;;;;;;5015260;28;20053;-68
2023/04/09 11:48:05;;;;;;;28.90;14.88;;;13.80;99.90;;;;;;5015156;28;20049;-68
2023/04/09 11:50:31;;;;;;;24.55;13.43;;;13.70;99.90;;;;;;5003610;28;20184;-67
2023/04/09 11:52:57;;;;;;;24.13;13.90;;;13.70;99.90;;;;;;5020379;28;20141;-67
2023/04/09 11:55:28;;;;;;;26.55;14.43;;;13.90;99.90;;;;;;4992447;28;20123;-68
2023/04/09 11:57:59;;;;;;;23.40;12.52;;;14.20;99.90;;;;;;5026231;28;20068;-68
2023/04/09 12:00:25;;;;;;;24.98;13.75;;;14.30;99.90;;;;;;5016994;28;20053;-67
2023/04/09 12:03:02;;;;;;;24.75;12.95;;;14.60;99.90;;;;;;5008673;28;20046;-68
2023/04/09 12:05:30;;;;;;;22.52;12.93;;;14.80;99.90;;;;;;5026533;28;20539;-67
2023/04/09 12:08:07;;;;;;;24.67;13.65;;;15.00;99.90;;;;;;5028859;28;20091;-68
2023/04/09 12:10:35;;;;;;;23.70;13.35;;;15.20;99.90;;;;;;5025509;28;20116;-68
2023/04/09 12:13:05;;;;;;;22.77;12.98;;;15.30;99.90;;;;;;4998238;28;20053;-68
2023/04/09 12:15:37;;;;;;;23.15;12.65;;;15.40;99.90;;;;;;5012193;28;20091;-68
2023/04/09 12:18:06;;;;;;;21.10;12.13;;;15.60;99.90;;;;;;5019104;28;20084;-68
2023/04/09 12:20:41;;;;;;;21.63;12.05;;;15.80;99.90;;;;;;5006299;28;20491;-67
2023/04/09 12:23:08;;;;;;;21.80;12.23;;;16.00;99.90;;;;;;5003205;28;20060;-68
2023/04/09 12:25:44;;;;;;;22.23;12.25;;;16.10;99.90;;;;;;5009871;28;20055;-68
2023/04/09 12:28:15;;;;;;;22.35;12.38;;;16.10;99.90;;;;;;5003329;28;20046;-68
2023/04/09 12:30:43;;;;;;;26.98;13.00;;;16.20;99.90;;;;;;5003599;28;20530;-68
2023/04/09 12:33:09;;;;;;;21.67;12.68;;;16.30;99.90;;;;;;5000886;28;20959;-67
2023/04/09 12:35:38;;;;;;;21.27;12.90;;;16.40;99.90;;;;;;5007493;28;20082;-68
2023/04/09 12:38:04;;;;;;;21.67;11.70;;;16.50;99.90;;;;;;5013569;28;20176;-67
2023/04/09 12:40:30;;;;;;;23.40;12.48;;;16.70;99.90;;;;;;5023909;28;20127;-68